ナンディ の空港の天気 - METARとTAF

ナンディ国際空港 ( NFFN / NAN ) - フィジー ナンディ (ビティレブ島)
飛行場実況気象(Metar)
観測時間05/26 21:00 FJT (05/26 09:00 UTC)
風向・風速南東 4m/s
視程10km以上
天気現象
全天の4割程度の雲 雲底高度 850m
全天の4割程度の雲 雲底高度 1460m
気温25℃
湿度69%
気圧1016hPa
METARNFFN 260900Z 13007KT 9999 SCT028 SCT048 25/19 Q1016 NOSIG
過去の天気等 Google飛行場航空写真 Wunderground天気予報

過去48時間のMETAR

飛行場予報(TAF)
発表時間: 5/26 17:11 FJT (5/26 05:11 UTC)
予報対象時間: 26日18時 FJT ~ 27日18時 FJT
風向・風速南東 3m/s
視程10km以上
全天の4割程度の雲 雲底高度 850m
全天の4割程度の雲 雲底高度 1460m
27日10時 FJT ~ 27日12時 FJT に徐々に
風向・風速西北西 5m/s
27日16時 FJT ~ 27日18時 FJT に徐々に
風向・風速東南東 3m/s
TAF NFFN 260511Z 2606/2706 13006KT 9999 SCT028 SCT048
BECMG 2622/2624 30010KT
BECMG 2704/2706 12006KT